createdAt,value
2018-09-02T00:00:19.202Z,78.25
2018-09-02T00:01:19.112Z,77.76
2018-09-02T00:02:19.012Z,77.29
2018-09-02T00:03:18.909Z,77.29
2018-09-02T00:04:18.811Z,77.86
2018-09-02T00:05:18.957Z,77.29
2018-09-02T00:06:18.624Z,77.19
2018-09-02T00:07:18.521Z,77.29
2018-09-02T00:08:18.429Z,77.58
2018-09-02T00:09:18.328Z,76.62
2018-09-02T00:10:18.231Z,75.95
2018-09-02T00:11:18.128Z,75.65
2018-09-02T00:12:18.029Z,76.04
2018-09-02T00:13:17.937Z,75.65
2018-09-02T00:14:17.829Z,76.42
2018-09-02T00:15:17.740Z,76.14
2018-09-02T00:16:17.635Z,76.14
2018-09-02T00:17:17.543Z,76.14
2018-09-02T00:18:17.443Z,76.14
2018-09-02T00:19:17.342Z,77.19
2018-09-02T00:20:17.249Z,75.75
2018-09-02T00:21:17.147Z,75.75
2018-09-02T00:22:17.057Z,76.04
2018-09-02T00:23:16.954Z,75.75
2018-09-02T00:24:16.863Z,76.04
2018-09-02T00:25:16.761Z,76.52
2018-09-02T00:26:16.666Z,77.00
2018-09-02T00:27:16.560Z,76.14
2018-09-02T00:28:16.460Z,76.52
2018-09-02T00:29:16.373Z,75.65
2018-09-02T00:30:16.265Z,75.56
2018-09-02T00:31:16.172Z,75.65
2018-09-02T00:32:16.071Z,75.95
2018-09-02T00:33:16.036Z,75.43
2018-09-02T00:34:15.885Z,74.95
2018-09-02T00:35:15.778Z,75.04
2018-09-02T00:36:15.681Z,74.51
2018-09-02T00:37:15.577Z,74.57
2018-09-02T00:38:15.491Z,75.08
2018-09-02T00:39:15.387Z,74.98
2018-09-02T00:40:15.288Z,74.37
2018-09-02T00:41:15.198Z,74.95
2018-09-02T00:42:15.090Z,74.37
2018-09-02T00:43:15.002Z,74.79
2018-09-02T00:44:14.899Z,74.66
2018-09-02T00:45:14.807Z,74.69
2018-09-02T00:46:14.700Z,75.33
2018-09-02T00:47:14.609Z,74.89
2018-09-02T00:48:14.504Z,74.98
2018-09-02T00:49:14.401Z,74.89
2018-09-02T00:50:14.313Z,75.75
2018-09-02T00:51:14.211Z,75.95
2018-09-02T00:52:14.118Z,75.18
2018-09-02T00:53:14.015Z,74.98
2018-09-02T00:54:13.927Z,75.95
2018-09-02T00:55:13.826Z,74.98
2018-09-02T00:56:13.718Z,75.27
2018-09-02T00:57:13.628Z,75.27
2018-09-02T00:58:13.520Z,75.85
2018-09-02T00:59:13.428Z,74.79
2018-09-02T01:00:13.333Z,74.89
2018-09-02T01:01:13.230Z,74.95
2018-09-02T01:02:13.134Z,74.76
2018-09-02T01:03:13.031Z,74.98
2018-09-02T01:04:12.940Z,75.08
2018-09-02T01:05:12.834Z,75.18
2018-09-02T01:06:12.749Z,74.98
2018-09-02T01:07:12.646Z,74.98
2018-09-02T01:08:12.539Z,75.04
2018-09-02T01:09:12.448Z,74.51
2018-09-02T01:10:12.349Z,74.95
2018-09-02T01:11:12.259Z,75.14
2018-09-02T01:12:12.156Z,75.18
2018-09-02T01:13:12.062Z,75.18
2018-09-02T01:14:11.954Z,74.85
2018-09-02T01:15:11.852Z,74.95
2018-09-02T01:16:11.765Z,74.95
2018-09-02T01:17:11.662Z,73.90
2018-09-02T01:18:11.566Z,73.99
2018-09-02T01:19:11.463Z,74.66
2018-09-02T01:20:11.363Z,74.27
2018-09-02T01:21:11.272Z,73.80
2018-09-02T01:22:11.173Z,73.90
2018-09-02T01:23:11.106Z,74.27
2018-09-02T01:24:10.971Z,73.99
2018-09-02T01:25:10.881Z,73.61
2018-09-02T01:26:10.786Z,73.90
2018-09-02T01:27:10.679Z,73.22
2018-09-02T01:28:10.592Z,72.80
2018-09-02T01:29:10.485Z,72.74
2018-09-02T01:30:10.391Z,72.42
2018-09-02T01:31:10.289Z,72.42
2018-09-02T01:32:10.189Z,72.32
2018-09-02T01:33:10.098Z,71.75
2018-09-02T01:34:09.990Z,71.94
2018-09-02T01:35:09.901Z,71.75
2018-09-02T01:36:09.795Z,71.46
2018-09-02T01:37:09.692Z,72.23
2018-09-02T01:38:09.603Z,71.84
2018-09-02T01:39:09.500Z,72.80
2018-09-02T01:40:09.409Z,72.13
2018-09-02T01:41:09.306Z,72.71
2018-09-02T01:42:09.209Z,72.61
2018-09-02T01:43:09.115Z,72.32
2018-09-02T01:44:09.010Z,72.42
2018-09-02T01:45:09.169Z,72.90
2018-09-02T01:46:08.811Z,73.09
2018-09-02T01:47:08.708Z,72.90
2018-09-02T01:48:08.620Z,73.09
2018-09-02T01:49:08.517Z,73.05
2018-09-02T01:50:08.429Z,73.24
2018-09-02T01:51:08.324Z,74.11
2018-09-02T01:52:08.219Z,73.82
2018-09-02T01:53:08.127Z,74.15
2018-09-02T01:54:08.029Z,74.15
2018-09-02T01:55:07.937Z,74.11
2018-09-02T01:56:07.829Z,74.30
2018-09-02T01:57:07.725Z,74.20
2018-09-02T01:58:07.637Z,74.77
2018-09-02T01:59:07.534Z,74.87
2018-09-02T02:00:07.737Z,75.10
2018-09-02T02:01:07.343Z,75.10
2018-09-02T02:02:07.247Z,75.39
2018-09-02T02:03:07.150Z,75.48
2018-09-02T02:04:07.043Z,75.68
2018-09-02T02:05:06.940Z,75.83
2018-09-02T02:06:06.846Z,75.58
2018-09-02T02:07:06.741Z,75.64
2018-09-02T02:08:06.652Z,76.31
2018-09-02T02:09:06.549Z,75.83
2018-09-02T02:10:06.450Z,76.89
2018-09-02T02:11:06.362Z,76.40
2018-09-02T02:12:06.261Z,76.64
2018-09-02T02:13:06.147Z,76.50
2018-09-02T02:14:06.062Z,77.36
2018-09-02T02:15:05.957Z,76.79
2018-09-02T02:16:05.868Z,77.11
2018-09-02T02:17:05.764Z,77.36
2018-09-02T02:18:05.658Z,77.65
2018-09-02T02:19:05.579Z,77.88
2018-09-02T02:20:05.480Z,77.69
2018-09-02T02:21:05.365Z,78.03
2018-09-02T02:22:05.270Z,77.55
2018-09-02T02:23:05.166Z,77.75
2018-09-02T02:24:05.073Z,78.07
2018-09-02T02:25:04.971Z,78.42
2018-09-02T02:26:04.875Z,78.99
2018-09-02T02:27:04.780Z,79.28
2018-09-02T02:28:04.674Z,79.37
2018-09-02T02:29:04.572Z,79.37
2018-09-02T02:30:04.784Z,79.75
2018-09-02T02:31:04.380Z,79.37
2018-09-02T02:32:04.289Z,80.08
2018-09-02T02:33:04.186Z,80.52
2018-09-02T02:34:04.078Z,80.04
2018-09-02T02:35:03.989Z,80.56
2018-09-02T02:36:03.887Z,80.14
2018-09-02T02:37:03.786Z,80.56
2018-09-02T02:38:03.689Z,80.66
2018-09-02T02:39:03.587Z,80.81
2018-09-02T02:40:03.497Z,81.00
2018-09-02T02:41:03.394Z,81.13
2018-09-02T02:42:03.296Z,81.52
2018-09-02T02:43:03.204Z,82.24
2018-09-02T02:44:03.096Z,82.09
2018-09-02T02:45:03.005Z,81.96
2018-09-02T02:46:02.905Z,82.67
2018-09-02T02:47:02.801Z,83.05
2018-09-02T02:48:02.712Z,83.05
2018-09-02T02:49:02.609Z,83.15
2018-09-02T02:50:02.513Z,83.44
2018-09-02T02:51:02.424Z,83.15
2018-09-02T02:52:02.311Z,83.82
2018-09-02T02:53:02.221Z,83.72
2018-09-02T02:54:02.114Z,84.20
2018-09-02T02:55:02.023Z,85.06
2018-09-02T02:56:01.917Z,85.16
2018-09-02T02:57:01.813Z,85.35
2018-09-02T02:58:01.727Z,85.06
2018-09-02T02:59:01.625Z,85.64
2018-09-02T03:00:01.770Z,85.16
2018-09-02T03:01:01.426Z,85.83
2018-09-02T03:02:01.335Z,85.64
2018-09-02T03:03:01.239Z,85.83
2018-09-02T03:04:01.133Z,86.50
2018-09-02T03:05:01.032Z,86.69
2018-09-02T03:06:00.936Z,86.50
2018-09-02T03:07:00.831Z,86.50
2018-09-02T03:08:00.747Z,86.41
2018-09-02T03:09:00.649Z,86.41
2018-09-02T03:10:00.547Z,86.21
2018-09-02T03:11:00.445Z,86.69
2018-09-02T03:12:00.339Z,86.60
2018-09-02T03:13:00.249Z,86.98
2018-09-02T03:14:00.150Z,86.98
2018-09-02T03:15:00.048Z,87.08
2018-09-02T03:15:59.953Z,87.08
2018-09-02T03:16:59.850Z,87.08
2018-09-02T03:17:59.764Z,87.08
2018-09-02T03:18:59.662Z,87.74
2018-09-02T03:19:59.817Z,87.08
2018-09-02T03:20:59.464Z,87.08
2018-09-02T03:21:59.356Z,87.74
2018-09-02T03:22:59.267Z,87.55
2018-09-02T03:23:59.167Z,87.94
2018-09-02T03:24:59.076Z,88.03
2018-09-02T03:25:58.970Z,87.65
2018-09-02T03:26:58.864Z,87.55
2018-09-02T03:27:58.777Z,87.74
2018-09-02T03:28:58.673Z,87.74
2018-09-02T03:29:58.585Z,87.55
2018-09-02T03:30:58.483Z,87.37
2018-09-02T03:31:58.373Z,87.84
2018-09-02T03:32:58.283Z,87.46
2018-09-02T03:33:58.184Z,88.23
2018-09-02T03:34:58.082Z,87.74
2018-09-02T03:35:57.991Z,87.84
2018-09-02T03:36:57.890Z,87.51
2018-09-02T03:37:57.793Z,87.84
2018-09-02T03:38:57.691Z,87.41
2018-09-02T03:39:57.892Z,88.13
2018-09-02T03:40:57.503Z,87.99
2018-09-02T03:41:57.392Z,87.90
2018-09-02T03:42:57.301Z,88.47
2018-09-02T03:43:57.200Z,87.90
2018-09-02T03:44:57.094Z,88.37
2018-09-02T03:45:57.009Z,88.18
2018-09-02T03:46:56.902Z,87.99
2018-09-02T03:47:56.800Z,88.85
2018-09-02T03:48:56.707Z,88.28
2018-09-02T03:49:56.858Z,88.56
2018-09-02T03:50:56.515Z,88.56
2018-09-02T03:51:56.412Z,88.51
2018-09-02T03:52:56.308Z,89.18
2018-09-02T03:53:56.213Z,89.04
2018-09-02T03:54:56.110Z,89.66
2018-09-02T03:55:56.022Z,89.72
2018-09-02T03:56:55.920Z,89.90
2018-09-02T03:57:55.812Z,89.86
2018-09-02T03:58:55.724Z,89.43
2018-09-02T03:59:55.620Z,89.81
2018-09-02T04:00:55.517Z,89.62
2018-09-02T04:01:55.430Z,90.05
2018-09-02T04:02:55.340Z,89.47
2018-09-02T04:03:55.232Z,89.81
2018-09-02T04:04:55.127Z,89.81
2018-09-02T04:05:55.028Z,90.43
2018-09-02T04:06:54.936Z,90.67
2018-09-02T04:07:54.838Z,90.91
2018-09-02T04:08:54.733Z,90.67
2018-09-02T04:09:54.636Z,90.72
2018-09-02T04:10:54.535Z,90.58
2018-09-02T04:11:54.442Z,90.43
2018-09-02T04:12:54.340Z,90.96
2018-09-02T04:13:54.243Z,90.67
2018-09-02T04:14:54.150Z,90.86
2018-09-02T04:15:54.044Z,90.77
2018-09-02T04:16:53.953Z,90.86
2018-09-02T04:17:53.845Z,90.67
2018-09-02T04:18:53.743Z,90.19
2018-09-02T04:19:53.659Z,90.09
2018-09-02T04:20:53.560Z,90.09
2018-09-02T04:21:53.459Z,90.48
2018-09-02T04:22:53.356Z,89.81
2018-09-02T04:23:53.250Z,90.00
2018-09-02T04:24:53.161Z,90.77
2018-09-02T04:25:53.062Z,91.25
2018-09-02T04:26:52.958Z,91.05
2018-09-02T04:27:52.863Z,91.44
2018-09-02T04:28:52.759Z,91.44
2018-09-02T04:29:52.673Z,91.29
2018-09-02T04:30:52.570Z,91.34
2018-09-02T04:31:52.469Z,91.25
2018-09-02T04:32:52.377Z,91.72
2018-09-02T04:33:52.318Z,91.53
2018-09-02T04:34:52.168Z,91.34
2018-09-02T04:35:52.081Z,91.25
2018-09-02T04:36:51.976Z,91.44
2018-09-02T04:37:51.893Z,91.25
2018-09-02T04:38:51.777Z,91.25
2018-09-02T04:39:51.675Z,91.72
2018-09-02T04:40:51.585Z,92.01
2018-09-02T04:41:51.486Z,91.53
2018-09-02T04:42:51.385Z,91.34
2018-09-02T04:43:51.288Z,91.44
2018-09-02T04:44:51.196Z,91.53
2018-09-02T04:45:51.098Z,91.44
2018-09-02T04:46:50.995Z,91.25
2018-09-02T04:47:50.892Z,91.34
2018-09-02T04:48:50.801Z,91.63
2018-09-02T04:49:50.691Z,91.44
2018-09-02T04:50:50.587Z,91.34
2018-09-02T04:51:50.505Z,91.53
2018-09-02T04:52:50.399Z,91.15
2018-09-02T04:53:50.303Z,92.21
2018-09-02T04:54:50.200Z,91.44
2018-09-02T04:55:50.095Z,92.11
2018-09-02T04:56:50.008Z,92.11
2018-09-02T04:57:49.906Z,92.49
2018-09-02T04:58:49.809Z,92.58
2018-09-02T04:59:49.956Z,92.49
2018-09-02T05:00:49.604Z,92.58
2018-09-02T05:01:49.505Z,92.97
2018-09-02T05:02:49.417Z,93.07
2018-09-02T05:03:49.312Z,93.07
2018-09-02T05:04:49.221Z,93.07
2018-09-02T05:05:49.114Z,92.78
2018-09-02T05:06:49.028Z,93.07
2018-09-02T05:07:48.924Z,92.97
2018-09-02T05:08:48.819Z,93.16
2018-09-02T05:09:48.714Z,93.16
2018-09-02T05:10:48.619Z,93.35
2018-09-02T05:11:48.518Z,93.45
2018-09-02T05:12:48.428Z,93.16
2018-09-02T05:13:48.329Z,93.26
2018-09-02T05:14:48.226Z,93.54
2018-09-02T05:15:48.129Z,93.93
2018-09-02T05:16:48.025Z,94.21
2018-09-02T05:17:47.929Z,94.35
2018-09-02T05:18:47.837Z,94.64
2018-09-02T05:19:47.986Z,94.35
2018-09-02T05:20:47.645Z,94.79
2018-09-02T05:21:47.540Z,95.22
2018-09-02T05:22:47.432Z,95.17
2018-09-02T05:23:47.345Z,95.41
2018-09-02T05:24:47.241Z,96.27
2018-09-02T05:25:47.147Z,96.37
2018-09-02T05:26:47.042Z,96.84
2018-09-02T05:27:46.941Z,96.66
2018-09-02T05:28:46.852Z,97.33
2018-09-02T05:29:46.752Z,97.04
2018-09-02T05:30:46.655Z,97.23
2018-09-02T05:31:46.553Z,97.61
2018-09-02T05:32:46.452Z,98.00
2018-09-02T05:33:46.363Z,98.19
2018-09-02T05:34:46.260Z,98.96
2018-09-02T05:35:46.155Z,98.38
2018-09-02T05:36:46.103Z,98.67
2018-09-02T05:37:45.956Z,98.10
2018-09-02T05:38:45.866Z,98.47
2018-09-02T05:39:46.070Z,98.10
2018-09-02T05:40:45.679Z,98.28
2018-09-02T05:41:45.584Z,98.10
2018-09-02T05:42:45.480Z,98.19
2018-09-02T05:43:45.374Z,98.38
2018-09-02T05:44:45.276Z,97.90
2018-09-02T05:45:45.185Z,98.67
2018-09-02T05:46:45.082Z,98.96
2018-09-02T05:47:44.973Z,99.24
2018-09-02T05:48:44.884Z,99.63
2018-09-02T05:49:45.034Z,99.24
2018-09-02T05:50:44.693Z,99.24
2018-09-02T05:51:44.592Z,99.63
2018-09-02T05:52:44.489Z,99.87
2018-09-02T05:53:44.394Z,99.99
2018-09-02T05:54:44.291Z,99.99
2018-09-02T05:55:44.203Z,99.99
2018-09-02T05:56:44.103Z,99.99
2018-09-02T05:57:44.018Z,99.99
2018-09-02T05:58:43.900Z,99.99
2018-09-02T05:59:43.799Z,99.63
2018-09-02T06:00:43.707Z,99.87
2018-09-02T06:01:43.608Z,99.77
2018-09-02T06:02:43.563Z,99.96
2018-09-02T06:03:43.415Z,99.99
2018-09-02T06:04:43.323Z,99.99
2018-09-02T06:05:43.220Z,99.99
2018-09-02T06:06:43.117Z,99.99
2018-09-02T06:07:43.024Z,99.99
2018-09-02T06:08:42.921Z,99.99
2018-09-02T06:09:42.825Z,99.99
2018-09-02T06:10:42.722Z,99.99
2018-09-02T06:11:42.639Z,99.99
2018-09-02T06:12:42.534Z,99.99
2018-09-02T06:13:42.440Z,99.99
2018-09-02T06:14:42.336Z,99.99
2018-09-02T06:15:42.231Z,99.96
2018-09-02T06:16:42.140Z,99.96
2018-09-02T06:17:42.045Z,99.99
2018-09-02T06:18:41.966Z,99.99
2018-09-02T06:19:41.846Z,99.99
2018-09-02T06:20:41.756Z,99.99
2018-09-02T06:21:41.649Z,99.99
2018-09-02T06:22:41.558Z,99.99
2018-09-02T06:23:41.456Z,99.87
2018-09-02T06:24:41.353Z,99.87
2018-09-02T06:25:41.267Z,99.87
2018-09-02T06:26:41.164Z,99.96
2018-09-02T06:27:41.068Z,99.99
2018-09-02T06:28:40.965Z,99.99
2018-09-02T06:29:40.881Z,99.99
2018-09-02T06:30:40.772Z,99.99
2018-09-02T06:31:40.672Z,99.99
2018-09-02T06:32:40.603Z,99.99
2018-09-02T06:33:40.474Z,99.99
2018-09-02T06:34:40.387Z,99.99
2018-09-02T06:35:40.325Z,99.99
2018-09-02T06:36:40.193Z,99.99
2018-09-02T06:37:40.086Z,99.99
2018-09-02T06:38:39.995Z,99.99
2018-09-02T06:39:40.018Z,99.99
2018-09-02T06:40:39.786Z,99.99
2018-09-02T06:41:39.699Z,99.99
2018-09-02T06:42:39.598Z,99.99
2018-09-02T06:43:39.504Z,99.99
2018-09-02T06:44:39.400Z,99.99
2018-09-02T06:45:39.370Z,99.99
2018-09-02T06:46:39.210Z,99.99
2018-09-02T06:47:39.120Z,99.99
2018-09-02T06:48:39.014Z,99.99
2018-09-02T06:49:38.917Z,99.99
2018-09-02T06:50:38.814Z,99.99
2018-09-02T06:51:38.717Z,99.99
2018-09-02T06:52:38.626Z,99.99
2018-09-02T06:53:38.518Z,99.99
2018-09-02T06:54:38.426Z,99.99
2018-09-02T06:55:38.325Z,99.99
2018-09-02T06:56:38.235Z,99.99
2018-09-02T06:57:38.136Z,99.99
2018-09-02T06:58:38.060Z,99.99
2018-09-02T06:59:37.935Z,99.99
2018-09-02T07:00:37.845Z,99.99
2018-09-02T07:01:37.748Z,99.99
2018-09-02T07:02:37.654Z,99.99
2018-09-02T07:03:37.553Z,99.99
2018-09-02T07:04:37.463Z,99.99
2018-09-02T07:05:37.356Z,99.99
2018-09-02T07:06:37.278Z,99.99
2018-09-02T07:07:37.165Z,99.99
2018-09-02T07:08:37.074Z,99.99
2018-09-02T07:09:36.969Z,99.99
2018-09-02T07:10:36.876Z,99.99
2018-09-02T07:11:36.773Z,99.99
2018-09-02T07:12:36.680Z,99.99
2018-09-02T07:13:36.592Z,99.99
2018-09-02T07:14:36.489Z,99.99
2018-09-02T07:15:36.397Z,99.99
2018-09-02T07:16:36.295Z,99.99
2018-09-02T07:17:36.219Z,99.99
2018-09-02T07:18:36.103Z,99.99
2018-09-02T07:19:36.011Z,99.99
2018-09-02T07:20:35.909Z,99.99
2018-09-02T07:21:35.812Z,99.99
2018-09-02T07:22:35.710Z,99.99
2018-09-02T07:23:35.629Z,99.99
2018-09-02T07:24:35.534Z,99.99
2018-09-02T07:25:35.426Z,99.99
2018-09-02T07:26:35.335Z,99.99
2018-09-02T07:27:35.230Z,99.99
2018-09-02T07:28:35.139Z,99.87
2018-09-02T07:29:35.039Z,99.99
2018-09-02T07:30:34.949Z,99.99
2018-09-02T07:31:34.895Z,99.99
2018-09-02T07:32:34.752Z,99.99
2018-09-02T07:33:34.656Z,99.99
2018-09-02T07:34:34.564Z,99.99
2018-09-02T07:35:34.461Z,99.99
2018-09-02T07:36:34.367Z,99.99
2018-09-02T07:37:34.261Z,99.99
2018-09-02T07:38:34.169Z,99.99
2018-09-02T07:39:34.070Z,99.99
2018-09-02T07:40:33.978Z,99.99
2018-09-02T07:41:33.872Z,99.99
2018-09-02T07:42:33.780Z,99.99
2018-09-02T07:43:33.732Z,99.99
2018-09-02T07:44:33.887Z,99.99
2018-09-02T07:45:33.501Z,99.99
2018-09-02T07:46:33.399Z,99.99
2018-09-02T07:47:33.301Z,99.99
2018-09-02T07:48:33.198Z,99.99
2018-09-02T07:49:33.112Z,99.99
2018-09-02T07:50:33.009Z,99.99
2018-09-02T07:51:32.919Z,99.99
2018-09-02T07:52:32.816Z,99.99
2018-09-02T07:53:32.722Z,99.99
2018-09-02T07:54:32.655Z,99.99
2018-09-02T07:55:32.532Z,99.99
2018-09-02T07:56:32.427Z,99.99
2018-09-02T07:57:32.333Z,99.99
2018-09-02T07:58:32.232Z,99.99
2018-09-02T07:59:32.136Z,99.99
2018-09-02T08:00:32.047Z,99.99
2018-09-02T08:01:31.948Z,99.99
2018-09-02T08:02:31.892Z,99.99
2018-09-02T08:03:31.750Z,99.99
2018-09-02T08:04:31.660Z,99.99
2018-09-02T08:05:31.560Z,99.99
2018-09-02T08:06:31.469Z,99.99
2018-09-02T08:07:31.365Z,99.99
2018-09-02T08:08:31.273Z,99.99
2018-09-02T08:09:31.179Z,99.99
2018-09-02T08:10:31.075Z,99.99
2018-09-02T08:11:30.988Z,99.99
2018-09-02T08:12:30.917Z,99.99
2018-09-02T08:13:30.790Z,99.99
2018-09-02T08:14:30.701Z,99.99
2018-09-02T08:15:30.598Z,99.99
2018-09-02T08:16:30.512Z,99.99
2018-09-02T08:17:30.421Z,99.99
2018-09-02T08:18:30.323Z,99.99
2018-09-02T08:19:30.220Z,99.99
2018-09-02T08:20:30.117Z,99.99
2018-09-02T08:21:30.031Z,99.99
2018-09-02T08:22:29.953Z,99.99
2018-09-02T08:23:29.839Z,99.99
2018-09-02T08:24:29.748Z,99.99
2018-09-02T08:25:29.653Z,99.99
2018-09-02T08:26:29.576Z,99.93
2018-09-02T08:27:29.459Z,99.99
2018-09-02T08:28:29.360Z,99.98
2018-09-02T08:29:29.268Z,99.99
2018-09-02T08:30:29.178Z,99.78
2018-09-02T08:31:29.072Z,99.98
2018-09-02T08:32:28.986Z,99.98
2018-09-02T08:33:28.888Z,99.98
2018-09-02T08:34:28.784Z,99.63
2018-09-02T08:35:28.698Z,99.68
2018-09-02T08:36:28.596Z,99.99
2018-09-02T08:37:28.501Z,99.78
2018-09-02T08:38:28.409Z,99.99
2018-09-02T08:39:28.304Z,99.40
2018-09-02T08:40:28.216Z,99.68
2018-09-02T08:41:28.140Z,99.78
2018-09-02T08:42:28.023Z,99.78
2018-09-02T08:43:27.929Z,99.78
2018-09-02T08:44:27.827Z,99.99
2018-09-02T08:45:27.738Z,99.49
2018-09-02T08:46:27.648Z,99.49
2018-09-02T08:47:27.553Z,99.15
2018-09-02T08:48:27.455Z,99.68
2018-09-02T08:49:27.349Z,99.21
2018-09-02T08:50:27.273Z,99.40
2018-09-02T08:51:27.168Z,99.11
2018-09-02T08:52:27.064Z,99.35
2018-09-02T08:53:26.975Z,99.35
2018-09-02T08:54:26.868Z,99.25
2018-09-02T08:55:26.791Z,98.86
2018-09-02T08:56:26.690Z,99.06
2018-09-02T08:57:26.589Z,99.06
2018-09-02T08:58:26.497Z,98.96
2018-09-02T08:59:26.390Z,99.63
2018-09-02T09:00:26.300Z,98.91
2018-09-02T09:01:26.217Z,99.11
2018-09-02T09:02:26.111Z,98.63
2018-09-02T09:03:26.018Z,98.44
2018-09-02T09:04:25.914Z,98.34
2018-09-02T09:05:25.819Z,98.14
2018-09-02T09:06:25.716Z,98.24
2018-09-02T09:07:25.679Z,98.14
2018-09-02T09:08:25.708Z,98.34
2018-09-02T09:09:25.432Z,98.14
2018-09-02T09:10:25.342Z,97.47
2018-09-02T09:11:25.248Z,97.57
2018-09-02T09:12:25.145Z,98.34
2018-09-02T09:13:25.059Z,97.57
2018-09-02T09:14:24.958Z,98.05
2018-09-02T09:15:24.860Z,97.96
2018-09-02T09:16:24.758Z,97.96
2018-09-02T09:17:24.671Z,97.67
2018-09-02T09:18:24.579Z,97.76
2018-09-02T09:19:24.480Z,97.67
2018-09-02T09:20:24.388Z,97.47
2018-09-02T09:21:24.296Z,96.99
2018-09-02T09:22:24.189Z,96.90
2018-09-02T09:23:24.101Z,97.28
2018-09-02T09:24:23.997Z,97.09
2018-09-02T09:25:23.902Z,96.99
2018-09-02T09:26:23.799Z,96.42
2018-09-02T09:27:23.711Z,96.61
2018-09-02T09:28:23.632Z,96.70
2018-09-02T09:29:23.520Z,96.51
2018-09-02T09:30:23.430Z,96.51
2018-09-02T09:31:23.321Z,96.42
2018-09-02T09:32:23.271Z,96.13
2018-09-02T09:33:23.145Z,96.17
2018-09-02T09:34:23.039Z,95.94
2018-09-02T09:35:22.952Z,95.79
2018-09-02T09:36:22.848Z,96.08
2018-09-02T09:37:22.755Z,95.70
2018-09-02T09:38:22.660Z,95.31
2018-09-02T09:39:22.860Z,96.08
2018-09-02T09:40:22.470Z,95.98
2018-09-02T09:41:22.362Z,95.21
2018-09-02T09:42:22.270Z,95.12
2018-09-02T09:43:22.183Z,95.12
2018-09-02T09:44:22.078Z,95.21
2018-09-02T09:45:21.992Z,95.26
2018-09-02T09:46:21.890Z,95.17
2018-09-02T09:47:21.794Z,95.26
2018-09-02T09:48:21.702Z,95.17
2018-09-02T09:49:21.604Z,95.17
2018-09-02T09:50:21.517Z,95.26
2018-09-02T09:51:21.419Z,95.17
2018-09-02T09:52:21.316Z,94.98
2018-09-02T09:53:21.222Z,95.26
2018-09-02T09:54:21.119Z,95.07
2018-09-02T09:55:21.034Z,94.78
2018-09-02T09:56:20.943Z,95.02
2018-09-02T09:57:20.836Z,94.92
2018-09-02T09:58:20.745Z,95.02
2018-09-02T09:59:20.640Z,95.31
2018-09-02T10:00:20.551Z,94.92
2018-09-02T10:01:20.461Z,94.92
2018-09-02T10:02:20.358Z,94.45
2018-09-02T10:03:20.264Z,94.73
2018-09-02T10:04:20.173Z,94.15
2018-09-02T10:05:20.074Z,94.45
2018-09-02T10:06:19.984Z,93.77
2018-09-02T10:07:19.883Z,94.40
2018-09-02T10:08:19.791Z,94.88
2018-09-02T10:09:20.047Z,96.61
2018-09-02T10:10:19.598Z,98.58
2018-09-02T10:11:19.506Z,99.99
2018-09-02T10:12:19.416Z,99.99
2018-09-02T10:13:19.307Z,99.99
2018-09-02T10:14:19.214Z,99.99
2018-09-02T10:15:19.113Z,99.99
2018-09-02T10:16:19.024Z,99.99
2018-09-02T10:17:18.948Z,99.99
2018-09-02T10:18:18.880Z,99.99
2018-09-02T10:19:18.726Z,99.99
2018-09-02T10:20:18.636Z,99.99
2018-09-02T10:21:18.548Z,99.99
2018-09-02T10:22:18.445Z,99.99
2018-09-02T10:23:18.355Z,99.99
2018-09-02T10:24:18.248Z,99.99
2018-09-02T10:25:18.155Z,99.99
2018-09-02T10:26:18.050Z,99.99
2018-09-02T10:27:18.029Z,99.99
2018-09-02T10:28:17.862Z,99.99
2018-09-02T10:29:17.767Z,99.99
2018-09-02T10:30:17.664Z,99.99
2018-09-02T10:31:17.571Z,99.99
2018-09-02T10:32:17.469Z,99.99
2018-09-02T10:33:17.393Z,99.99
2018-09-02T10:34:17.278Z,99.99
2018-09-02T10:35:17.188Z,99.99
2018-09-02T10:36:17.096Z,99.99
2018-09-02T10:37:16.990Z,99.99
2018-09-02T10:38:16.887Z,99.99
2018-09-02T10:39:17.047Z,99.99
2018-09-02T10:40:16.705Z,99.99
2018-09-02T10:41:16.765Z,99.99
2018-09-02T10:42:16.516Z,99.99
2018-09-02T10:43:16.407Z,99.99
2018-09-02T10:44:16.316Z,99.99
2018-09-02T10:45:16.216Z,99.99
2018-09-02T10:46:16.127Z,99.99
2018-09-02T10:47:16.025Z,99.99
2018-09-02T10:48:15.934Z,99.99
2018-09-02T10:49:15.826Z,99.99
2018-09-02T10:50:15.736Z,99.99
2018-09-02T10:51:15.637Z,99.99
2018-09-02T10:52:15.555Z,99.99
2018-09-02T10:53:15.444Z,99.99
2018-09-02T10:54:15.347Z,99.99
2018-09-02T10:55:15.255Z,99.99
2018-09-02T10:56:15.151Z,99.99
2018-09-02T10:57:15.065Z,99.99
2018-09-02T10:58:14.963Z,99.99
2018-09-02T10:59:14.869Z,99.99
2018-09-02T11:00:14.765Z,99.99
2018-09-02T11:01:14.679Z,99.99
2018-09-02T11:02:14.575Z,99.99
2018-09-02T11:03:14.481Z,99.99
2018-09-02T11:04:14.378Z,99.99
2018-09-02T11:05:14.286Z,99.99
2018-09-02T11:06:14.182Z,99.99
2018-09-02T11:07:14.096Z,99.99
2018-09-02T11:08:13.992Z,99.99
2018-09-02T11:09:14.196Z,99.99
2018-09-02T11:10:13.805Z,99.99
2018-09-02T11:11:13.704Z,99.99
2018-09-02T11:12:13.613Z,99.99
2018-09-02T11:13:13.596Z,99.99
2018-09-02T11:14:13.422Z,99.99
2018-09-02T11:15:13.313Z,99.99
2018-09-02T11:16:13.223Z,99.99
2018-09-02T11:17:13.125Z,99.99
2018-09-02T11:18:13.032Z,99.99
2018-09-02T11:19:12.945Z,99.99
2018-09-02T11:20:12.841Z,99.99
2018-09-02T11:21:12.746Z,99.99
2018-09-02T11:22:12.642Z,99.99
2018-09-02T11:23:12.555Z,99.99
2018-09-02T11:24:12.464Z,99.99
2018-09-02T11:25:12.357Z,99.99
2018-09-02T11:26:12.269Z,99.99
2018-09-02T11:27:12.162Z,99.99
2018-09-02T11:28:12.070Z,99.99
2018-09-02T11:29:11.984Z,99.99
2018-09-02T11:30:11.881Z,99.99
2018-09-02T11:31:11.799Z,99.99
2018-09-02T11:32:11.683Z,99.99
2018-09-02T11:33:11.598Z,99.99
2018-09-02T11:34:11.531Z,99.99
2018-09-02T11:35:11.401Z,98.97
2018-09-02T11:36:11.311Z,98.58
2018-09-02T11:37:11.203Z,99.16
2018-09-02T11:38:11.111Z,98.77
2018-09-02T11:39:11.029Z,98.49
2018-09-02T11:40:10.924Z,99.11
2018-09-02T11:41:10.828Z,97.86
2018-09-02T11:42:10.739Z,98.05
2018-09-02T11:43:10.633Z,96.80
2018-09-02T11:44:10.555Z,97.19
2018-09-02T11:45:10.489Z,96.37
2018-09-02T11:46:10.353Z,96.99
2018-09-02T11:47:10.265Z,96.89
2018-09-02T11:48:10.170Z,96.89
2018-09-02T11:49:10.070Z,96.51
2018-09-02T11:50:09.978Z,95.45
2018-09-02T11:51:09.895Z,95.21
2018-09-02T11:52:09.783Z,94.73
2018-09-02T11:53:09.687Z,94.39
2018-09-02T11:54:09.597Z,94.29
2018-09-02T11:55:09.498Z,93.81
2018-09-02T11:56:09.407Z,93.85
2018-09-02T11:57:09.312Z,92.89
2018-09-02T11:58:09.209Z,91.93
2018-09-02T11:59:09.120Z,91.25
2018-09-02T12:00:09.030Z,91.74
2018-09-02T12:01:08.941Z,91.44
2018-09-02T12:02:08.840Z,91.35
2018-09-02T12:03:08.741Z,91.97
2018-09-02T12:04:08.653Z,90.43
2018-09-02T12:05:08.551Z,89.85
2018-09-02T12:06:08.461Z,89.23
2018-09-02T12:07:08.371Z,88.84
2018-09-02T12:08:08.282Z,89.27
2018-09-02T12:09:08.178Z,89.17
2018-09-02T12:10:08.083Z,88.69
2018-09-02T12:11:07.997Z,88.21
2018-09-02T12:12:07.906Z,87.82
2018-09-02T12:13:07.799Z,87.15
2018-09-02T12:14:07.708Z,87.63
2018-09-02T12:15:07.615Z,87.44
2018-09-02T12:16:07.524Z,87.53
2018-09-02T12:17:07.436Z,87.24
2018-09-02T12:18:07.332Z,87.24
2018-09-02T12:19:07.241Z,86.76
2018-09-02T12:20:07.150Z,86.18
2018-09-02T12:21:07.063Z,85.89
2018-09-02T12:22:06.960Z,85.50
2018-09-02T12:23:06.866Z,86.24
2018-09-02T12:24:07.027Z,87.10
2018-09-02T12:25:06.683Z,86.04
2018-09-02T12:26:06.579Z,86.24
2018-09-02T12:27:06.497Z,86.04
2018-09-02T12:28:06.400Z,86.14
2018-09-02T12:29:06.306Z,85.91
2018-09-02T12:30:06.203Z,85.52
2018-09-02T12:31:06.113Z,86.00
2018-09-02T12:32:06.024Z,85.71
2018-09-02T12:33:05.935Z,85.81
2018-09-02T12:34:05.832Z,85.52
2018-09-02T12:35:05.739Z,85.17
2018-09-02T12:36:05.644Z,84.69
2018-09-02T12:37:05.558Z,84.21
2018-09-02T12:38:05.452Z,84.06
2018-09-02T12:39:05.379Z,83.67
2018-09-02T12:40:05.276Z,82.65
2018-09-02T12:41:05.168Z,81.68
2018-09-02T12:42:05.079Z,81.05
2018-09-02T12:43:04.987Z,79.74
2018-09-02T12:44:04.894Z,79.74
2018-09-02T12:45:04.796Z,79.68
2018-09-02T12:46:04.709Z,78.81
2018-09-02T12:47:04.622Z,77.78
2018-09-02T12:48:04.555Z,77.45
2018-09-02T12:49:04.417Z,77.50
2018-09-02T12:50:04.323Z,76.91
2018-09-02T12:51:04.239Z,76.43